Time;durP1;ratioP1;P1;durP2;ratioP2;P2;SDS_P1;SDS_P2;PMS_P1;PMS_P2;Temp;Humidity;BMP_temperature;BMP_pressure;BME280_temperature;BME280_humidity;BME280_pressure;Samples;Min_cycle;Max_cycle;Signal;HPM_P1;HPM_P2
2022/10/11 00:01:17;;;;;;;6.27;1.90;;;;;;;10.18;89.38;101224.41;5024649;28;20585;-79
2022/10/11 00:03:45;;;;;;;7.77;2.90;;;;;;;10.06;90.41;101209.69;5024687;28;20770;-79
2022/10/11 00:06:11;;;;;;;5.37;2.07;;;;;;;10.04;90.42;101195.78;5024461;28;20216;-81
2022/10/11 00:08:37;;;;;;;7.60;2.40;;;;;;;10.10;90.09;101208.78;5024500;28;20211;-81
2022/10/11 00:11:06;;;;;;;4.83;1.70;;;;;;;10.02;90.12;101207.97;5023946;28;20212;-79
2022/10/11 00:13:33;;;;;;;5.00;1.67;;;;;;;10.02;89.77;101221.00;5024945;28;20230;-81
2022/10/11 00:15:59;;;;;;;5.20;1.90;;;;;;;10.06;89.22;101241.84;5025048;28;20211;-81
2022/10/11 00:18:26;;;;;;;5.63;2.20;;;;;;;10.03;89.84;101238.38;5024466;28;20204;-79
2022/10/11 00:21:02;;;;;;;9.07;2.27;;;;;;;10.01;89.77;101253.16;5024098;28;20703;-81
2022/10/11 00:23:28;;;;;;;7.03;2.43;;;;;;;9.97;90.52;101228.84;5024719;28;20256;-80
2022/10/11 00:25:57;;;;;;;4.53;2.10;;;;;;;9.80;91.37;101210.66;5024928;28;20209;-79
2022/10/11 00:28:23;;;;;;;5.20;1.77;;;;;;;9.87;90.97;101201.03;5025225;28;20210;-80
2022/10/11 00:30:50;;;;;;;10.93;2.47;;;;;;;9.87;91.33;101209.75;5023712;28;20218;-79
2022/10/11 00:33:16;;;;;;;7.97;2.27;;;;;;;9.82;91.12;101214.13;5027380;28;20223;-80
2022/10/11 00:35:43;;;;;;;6.90;1.90;;;;;;;9.78;90.91;101211.53;5029076;28;20223;-80
2022/10/11 00:38:11;;;;;;;4.37;2.03;;;;;;;9.71;91.69;101195.91;5028857;28;20234;-80
2022/10/11 00:40:38;;;;;;;3.67;1.40;;;;;;;9.80;90.93;101204.56;5028743;28;20215;-79
2022/10/11 00:43:12;;;;;;;4.23;1.70;;;;;;;9.81;90.51;101227.16;5028524;28;20236;-81
2022/10/11 00:46:02;;;;;;;5.77;3.20;;;;;;;9.83;90.31;101239.34;5029408;28;20207;-81
2022/10/11 00:48:36;;;;;;;9.33;1.97;;;;;;;9.84;89.80;101251.47;5021659;28;20206;-80
2022/10/11 00:51:07;;;;;;;4.50;1.70;;;;;;;9.83;89.21;101272.34;5028620;28;20217;-79
2022/10/11 00:53:35;;;;;;;7.40;2.07;;;;;;;9.64;90.47;101259.34;5028747;28;20231;-80
2022/10/11 00:56:06;;;;;;;8.57;1.90;;;;;;;9.66;90.88;101241.09;5027420;28;20207;-81
2022/10/11 00:58:34;;;;;;;7.90;2.50;;;;;;;9.61;90.78;101232.41;5027871;28;20214;-80
2022/10/11 01:01:00;;;;;;;7.97;2.40;;;;;;;9.70;90.25;101240.22;5028006;28;20210;-80
2022/10/11 01:03:30;;;;;;;6.77;2.83;;;;;;;9.69;89.69;101259.31;5028054;28;20236;-79
2022/10/11 01:05:57;;;;;;;4.60;1.87;;;;;;;9.61;90.08;101261.94;5027733;28;20213;-81
2022/10/11 01:08:24;;;;;;;8.57;2.57;;;;;;;9.53;91.81;101224.59;5025744;28;20686;-80
2022/10/11 01:10:53;;;;;;;7.43;2.57;;;;;;;9.59;91.02;101218.53;5023653;28;20209;-81
2022/10/11 01:13:31;;;;;;;3.63;1.87;;;;;;;9.63;90.36;101243.72;5023548;28;20251;-82
2022/10/11 01:16:06;;;;;;;5.73;2.20;;;;;;;9.65;89.88;101255.00;5023761;28;20211;-80
2022/10/11 01:18:41;;;;;;;8.97;1.93;;;;;;;9.63;89.61;101275.88;5023724;28;20218;-81
2022/10/11 01:21:16;;;;;;;5.93;2.50;;;;;;;9.59;89.19;101292.38;5022216;28;20216;-81
2022/10/11 01:24:10;;;;;;;4.33;2.00;;;;;;;9.55;88.85;101306.28;5023540;28;20229;-79
2022/10/11 01:27:09;;;;;;;8.60;2.30;;;;;;;9.48;89.48;101304.56;5023070;28;20203;-81
2022/10/11 01:29:46;;;;;;;8.23;2.10;;;;;;;9.44;89.47;101305.44;5022363;28;20213;-79
2022/10/11 01:32:17;;;;;;;7.33;2.50;;;;;;;9.36;91.03;101275.91;5022250;28;20230;-80
2022/10/11 01:34:53;;;;;;;7.93;2.40;;;;;;;9.35;90.87;101259.38;5022477;28;20216;-81
2022/10/11 01:37:30;;;;;;;5.37;2.50;;;;;;;9.43;90.32;101259.38;5022445;28;20217;-81
2022/10/11 01:40:01;;;;;;;7.03;3.03;;;;;;;9.42;90.17;101273.28;5022364;28;20258;-81
2022/10/11 01:42:29;;;;;;;4.73;3.13;;;;;;;9.39;91.03;101271.53;5021822;28;20238;-81
2022/10/11 01:44:57;;;;;;;8.33;2.67;;;;;;;9.41;90.49;101271.53;5021864;28;20203;-81
2022/10/11 01:47:25;;;;;;;5.97;3.43;;;;;;;9.45;90.05;101275.88;5022046;28;20692;-81
2022/10/11 01:49:54;;;;;;;6.63;2.90;;;;;;;9.46;89.99;101283.69;5021515;28;20211;-80
2022/10/11 01:52:21;;;;;;;8.67;2.80;;;;;;;9.41;90.01;101288.03;5021548;28;20234;-81
2022/10/11 01:55:02;;;;;;;7.50;2.33;;;;;;;9.41;89.46;101305.41;5022670;28;20202;-81
2022/10/11 01:58:02;;;;;;;9.10;3.40;;;;;;;9.38;90.08;101302.81;5021786;28;20218;-80
2022/10/11 02:00:33;;;;;;;8.63;2.97;;;;;;;9.40;89.88;101298.47;5020892;28;20306;-81
2022/10/11 02:03:17;;;;;;;5.90;2.57;;;;;;;9.39;89.62;101307.16;5021088;28;20231;-81
2022/10/11 02:05:50;;;;;;;7.20;3.10;;;;;;;9.35;89.43;101316.69;5021571;28;20642;-81
2022/10/11 02:08:22;;;;;;;7.77;2.53;;;;;;;9.39;89.31;101322.78;5020915;28;20214;-81
2022/10/11 02:10:54;;;;;;;3.67;2.17;;;;;;;9.34;89.29;101334.09;5020799;28;20691;-81
2022/10/11 02:13:25;;;;;;;12.73;3.13;;;;;;;9.27;90.03;101302.81;5020890;28;20224;-81
2022/10/11 02:15:55;;;;;;;11.17;2.83;;;;;;;9.24;89.79;101298.47;5021084;28;20213;-80
2022/10/11 02:18:27;;;;;;;6.40;2.77;;;;;;;9.21;89.58;101308.03;5020824;28;20214;-81
2022/10/11 02:20:57;;;;;;;5.83;3.03;;;;;;;9.12;90.33;101312.34;5020440;28;20289;-82
2022/10/11 02:23:29;;;;;;;7.73;3.00;;;;;;;9.15;90.37;101286.28;5019732;28;21131;-82
2022/10/11 02:25:57;;;;;;;10.60;3.33;;;;;;;9.17;90.22;101278.50;5019492;28;20221;-81
2022/10/11 02:28:28;;;;;;;6.47;2.80;;;;;;;9.15;90.57;101285.44;5019564;28;20203;-82
2022/10/11 02:30:57;;;;;;;5.87;2.73;;;;;;;9.16;90.40;101300.22;5019373;28;20214;-81
2022/10/11 02:33:31;;;;;;;8.57;2.47;;;;;;;9.06;91.76;101262.00;5019312;28;20240;-81
2022/10/11 02:36:02;;;;;;;7.77;3.20;;;;;;;9.08;91.34;101262.88;5019893;28;20207;-81
2022/10/11 02:38:35;;;;;;;5.53;3.03;;;;;;;9.09;90.50;101278.47;5019668;28;20211;-81
2022/10/11 02:41:11;;;;;;;8.43;2.83;;;;;;;9.10;91.55;101258.53;5019567;28;20211;-81
2022/10/11 02:43:42;;;;;;;4.60;2.73;;;;;;;9.14;90.96;101268.94;5019296;28;20231;-81
2022/10/11 02:46:10;;;;;;;6.63;2.50;;;;;;;8.93;92.57;101266.31;5019863;28;20219;-81
2022/10/11 02:48:38;;;;;;;14.13;5.27;;;;;;;9.02;92.09;101244.63;5018924;28;20207;-81
2022/10/11 02:51:05;;;;;;;5.30;2.80;;;;;;;8.94;92.47;101245.50;5018835;28;20294;-80
2022/10/11 02:53:32;;;;;;;7.03;3.20;;;;;;;8.99;92.00;101252.44;5019615;28;20230;-81
2022/10/11 02:55:59;;;;;;;9.37;3.27;;;;;;;8.96;91.63;101266.34;5018968;28;20211;-81
2022/10/11 02:58:25;;;;;;;5.90;2.70;;;;;;;8.92;91.06;101273.28;5023556;28;20193;-81
2022/10/11 03:00:52;;;;;;;5.20;3.33;;;;;;;8.90;91.28;101279.31;5037050;28;20194;-80
2022/10/11 03:03:19;;;;;;;6.27;2.90;;;;;;;8.93;90.82;101288.00;5037263;28;20214;-81
2022/10/11 03:05:46;;;;;;;8.13;3.17;;;;;;;8.97;90.68;101293.25;5037375;28;20191;-81
2022/10/11 03:08:16;;;;;;;10.37;2.63;;;;;;;8.92;90.80;101291.50;5037381;28;20259;-80
2022/10/11 03:10:43;;;;;;;7.40;2.47;;;;;;;8.94;90.60;101304.53;5036215;28;20183;-80
2022/10/11 03:13:09;;;;;;;6.73;2.87;;;;;;;8.91;90.88;101321.00;5036417;28;20223;-80
2022/10/11 03:15:35;;;;;;;6.17;2.10;;;;;;;8.93;91.41;101310.59;5036766;28;20274;-80
2022/10/11 03:18:02;;;;;;;6.67;2.17;;;;;;;8.93;91.01;101315.78;5037183;28;20203;-80
2022/10/11 03:20:28;;;;;;;5.60;2.23;;;;;;;8.92;90.82;101325.34;5028560;28;20203;-79
2022/10/11 03:22:56;;;;;;;7.53;1.80;;;;;;;8.85;90.86;101320.97;5024202;28;20227;-79
2022/10/11 03:25:23;;;;;;;10.03;2.67;;;;;;;8.91;91.49;101321.00;5023892;28;20212;-81
2022/10/11 03:27:49;;;;;;;5.00;1.90;;;;;;;8.92;91.28;101316.69;5024353;28;20210;-80
2022/10/11 03:30:16;;;;;;;5.37;2.20;;;;;;;8.91;91.15;101326.19;5023312;28;20218;-80
2022/10/11 03:32:43;;;;;;;5.67;1.60;;;;;;;8.92;90.50;101347.91;5024466;28;20223;-80
2022/10/11 03:35:09;;;;;;;5.53;2.00;;;;;;;8.89;90.04;101353.97;5024647;28;20211;-80
2022/10/11 03:37:36;;;;;;;5.37;1.77;;;;;;;8.91;90.29;101360.03;5024863;28;20875;-80
2022/10/11 03:40:05;;;;;;;7.07;2.30;;;;;;;8.89;90.19;101364.38;5024262;28;20206;-81
2022/10/11 03:42:31;;;;;;;4.47;1.97;;;;;;;8.84;90.53;101350.50;5025485;28;20234;-79
2022/10/11 03:45:00;;;;;;;6.37;2.10;;;;;;;8.83;91.53;101333.13;5024918;28;20232;-80
2022/10/11 03:47:27;;;;;;;13.87;2.00;;;;;;;8.78;91.49;101329.66;5026094;28;20247;-80
2022/10/11 03:49:53;;;;;;;4.10;1.67;;;;;;;8.78;91.48;101324.44;5024732;28;20207;-80
2022/10/11 03:52:20;;;;;;;6.03;2.07;;;;;;;8.78;91.80;101326.16;5025003;28;20241;-81
2022/10/11 03:54:46;;;;;;;7.90;1.53;;;;;;;8.80;91.09;101322.72;5025257;28;20227;-81
2022/10/11 03:57:14;;;;;;;7.23;1.67;;;;;;;8.75;91.16;101342.66;5024773;28;20219;-80
2022/10/11 03:59:40;;;;;;;12.33;2.07;;;;;;;8.62;93.24;101313.13;5024924;28;20250;-80
2022/10/11 04:02:07;;;;;;;8.20;2.00;;;;;;;8.72;93.91;101275.84;5024382;28;20223;-81
2022/10/11 04:04:34;;;;;;;9.40;2.80;;;;;;;8.71;94.05;101270.63;5024604;28;20231;-80
2022/10/11 04:07:00;;;;;;;5.63;1.70;;;;;;;8.75;93.89;101264.56;5027316;28;20218;-80
2022/10/11 04:09:27;;;;;;;4.13;1.70;;;;;;;8.72;93.15;101286.25;5028063;28;20234;-80
2022/10/11 04:11:53;;;;;;;9.13;2.77;;;;;;;8.75;92.86;101288.00;5027610;28;20232;-81
2022/10/11 04:14:21;;;;;;;4.37;1.57;;;;;;;8.75;92.53;101303.59;5028445;28;20203;-82
2022/10/11 04:16:47;;;;;;;4.43;2.13;;;;;;;8.76;92.29;101320.97;5028285;28;20210;-80
2022/10/11 04:19:14;;;;;;;3.53;1.60;;;;;;;8.72;92.11;101320.09;5027102;28;20210;-80
2022/10/11 04:21:40;;;;;;;7.03;3.00;;;;;;;8.73;92.29;101328.75;5026653;28;20234;-80
2022/10/11 04:24:07;;;;;;;6.10;2.60;;;;;;;8.72;93.89;101299.28;5027708;28;20227;-81
2022/10/11 04:26:34;;;;;;;3.23;1.60;;;;;;;8.74;93.55;101307.06;5027279;28;20202;-79
2022/10/11 04:29:00;;;;;;;7.10;3.00;;;;;;;8.73;93.12;101320.97;5027395;28;20217;-79
2022/10/11 04:31:28;;;;;;;4.97;1.90;;;;;;;8.74;92.89;101320.97;5026467;28;20211;-80
2022/10/11 04:33:55;;;;;;;4.93;1.43;;;;;;;8.71;92.81;101326.16;5027577;28;20203;-81
2022/10/11 04:36:22;;;;;;;6.00;2.07;;;;;;;8.70;93.28;101326.13;5027454;28;20211;-81
2022/10/11 04:38:49;;;;;;;8.27;1.90;;;;;;;8.71;92.38;101333.09;5027874;28;20207;-81
2022/10/11 04:41:16;;;;;;;9.63;3.17;;;;;;;8.63;93.70;101311.38;5026685;28;20210;-81
2022/10/11 04:43:42;;;;;;;8.07;2.57;;;;;;;8.62;93.78;101320.94;5026834;28;20238;-81
2022/10/11 04:46:09;;;;;;;7.83;2.10;;;;;;;8.63;93.23;101321.78;5027257;28;20207;-80
2022/10/11 04:48:37;;;;;;;4.83;2.13;;;;;;;8.65;93.67;101310.50;5027793;28;20302;-81
2022/10/11 04:51:04;;;;;;;7.40;2.00;;;;;;;8.65;94.38;101307.06;5026731;28;20210;-80
2022/10/11 04:53:31;;;;;;;5.83;1.90;;;;;;;8.64;94.05;101314.00;5027453;28;20699;-81
2022/10/11 04:55:59;;;;;;;4.40;2.80;;;;;;;8.66;93.23;101327.88;5026771;28;20215;-81
2022/10/11 04:58:26;;;;;;;5.67;2.00;;;;;;;8.70;92.82;101346.97;5026812;28;20257;-81
2022/10/11 05:00:52;;;;;;;6.77;1.50;;;;;;;8.66;92.85;101356.50;5025991;28;20210;-81
2022/10/11 05:03:19;;;;;;;4.00;2.30;;;;;;;8.54;93.97;101348.63;5027303;28;20234;-81
2022/10/11 05:05:47;;;;;;;4.67;2.10;;;;;;;8.58;94.28;101326.09;5027570;28;20225;-81
2022/10/11 05:08:13;;;;;;;5.93;1.80;;;;;;;8.62;93.91;101343.47;5027013;28;20203;-81
2022/10/11 05:10:40;;;;;;;6.60;1.90;;;;;;;8.57;93.34;101345.19;5026344;28;20664;-81
2022/10/11 05:13:07;;;;;;;9.17;2.67;;;;;;;8.58;93.27;101372.94;5026613;28;20237;-79
2022/10/11 05:15:34;;;;;;;5.30;2.10;;;;;;;8.59;92.75;101372.09;5026510;28;20256;-79
2022/10/11 05:18:00;;;;;;;8.20;2.53;;;;;;;8.59;92.82;101372.97;5025069;28;20199;-80
2022/10/11 05:20:27;;;;;;;5.87;2.20;;;;;;;8.56;92.83;101378.13;5023636;28;20670;-81
2022/10/11 05:22:55;;;;;;;6.33;1.70;;;;;;;8.54;92.73;101385.06;5023799;28;20223;-80
2022/10/11 05:25:21;;;;;;;11.43;2.40;;;;;;;8.55;92.63;101400.69;5026117;28;20222;-81
2022/10/11 05:27:48;;;;;;;13.33;2.73;;;;;;;8.51;93.14;101385.06;5026271;28;20213;-81
2022/10/11 05:30:14;;;;;;;7.70;2.30;;;;;;;8.55;93.45;101371.22;5024876;28;20214;-80
2022/10/11 05:32:41;;;;;;;6.23;2.93;;;;;;;8.58;93.01;101385.97;5023656;28;20226;-80
2022/10/11 05:35:08;;;;;;;6.97;2.17;;;;;;;8.51;92.34;101406.75;5023990;28;20684;-80
2022/10/11 05:37:34;;;;;;;7.83;2.40;;;;;;;8.50;92.03;101412.84;5024375;28;20207;-80
2022/10/11 05:40:03;;;;;;;4.43;2.03;;;;;;;8.53;92.12;101415.44;5023439;28;20202;-80
2022/10/11 05:42:30;;;;;;;8.00;1.90;;;;;;;8.55;92.07;101424.13;5024407;28;20235;-80
2022/10/11 05:44:56;;;;;;;7.37;2.30;;;;;;;8.52;92.34;101431.94;5023922;28;20234;-80
2022/10/11 05:47:22;;;;;;;6.87;2.70;;;;;;;8.47;93.64;101401.53;5023895;28;20218;-80
2022/10/11 05:49:49;;;;;;;7.47;2.93;;;;;;;8.40;94.81;101374.56;5023092;28;20211;-80
2022/10/11 05:52:18;;;;;;;10.60;2.53;;;;;;;8.42;95.26;101353.78;5023204;28;20235;-80
2022/10/11 05:54:45;;;;;;;10.63;3.23;;;;;;;8.34;96.55;101325.09;5023948;28;20221;-80
2022/10/11 05:57:13;;;;;;;5.97;2.97;;;;;;;8.40;96.28;101321.66;5023360;28;20489;-80
2022/10/11 05:59:39;;;;;;;10.70;2.60;;;;;;;8.32;97.24;101295.63;5024999;28;20206;-80
2022/10/11 06:02:06;;;;;;;10.20;3.57;;;;;;;8.34;97.30;101296.50;5024494;28;20222;-80
2022/10/11 06:04:36;;;;;;;11.63;3.27;;;;;;;8.32;97.13;101299.13;5024845;28;20329;-80
2022/10/11 06:07:02;;;;;;;6.50;3.20;;;;;;;8.40;96.98;101306.06;5026929;28;20387;-79
2022/10/11 06:09:29;;;;;;;9.70;3.43;;;;;;;8.20;98.00;101296.44;5044507;28;20202;-79
2022/10/11 06:11:56;;;;;;;5.77;3.60;;;;;;;8.22;98.34;101297.31;5044574;28;20230;-81
2022/10/11 06:14:24;;;;;;;11.00;3.77;;;;;;;8.13;99.06;101284.28;5043582;28;20322;-80
2022/10/11 06:16:51;;;;;;;9.20;3.70;;;;;;;8.12;99.42;101279.94;5041578;28;20237;-79
2022/10/11 06:19:18;;;;;;;10.67;3.53;;;;;;;8.27;99.47;101281.75;5038127;28;20206;-81
2022/10/11 06:21:45;;;;;;;12.50;3.37;;;;;;;8.29;98.88;101293.88;5043630;28;20222;-81
2022/10/11 06:24:12;;;;;;;8.93;4.03;;;;;;;8.17;98.96;101291.22;5041355;28;20297;-83
2022/10/11 06:26:38;;;;;;;6.07;3.17;;;;;;;8.26;99.32;101293.84;5042297;28;20198;-80
2022/10/11 06:29:05;;;;;;;6.90;3.40;;;;;;;8.13;99.40;101298.16;5042619;28;20209;-82
2022/10/11 06:31:33;;;;;;;11.10;4.70;;;;;;;8.12;100.00;101295.53;5043046;28;20202;-81
2022/10/11 06:33:59;;;;;;;8.53;3.57;;;;;;;8.10;100.00;101287.72;5043035;28;20209;-82
2022/10/11 06:36:26;;;;;;;12.13;4.50;;;;;;;8.08;100.00;101294.63;5043352;28;20202;-81
2022/10/11 06:38:53;;;;;;;7.00;3.90;;;;;;;8.16;100.00;101295.53;5044058;28;20210;-81
2022/10/11 06:41:23;;;;;;;11.03;4.40;;;;;;;8.19;99.90;101304.25;5041404;28;20202;-81
2022/10/11 06:43:49;;;;;;;9.37;3.70;;;;;;;8.27;100.00;101308.63;5044221;28;20203;-81
2022/10/11 06:46:17;;;;;;;9.50;3.97;;;;;;;8.33;99.88;101319.03;5043300;28;20260;-81
2022/10/11 06:48:46;;;;;;;12.57;4.67;;;;;;;8.27;99.41;101325.97;5043226;28;20206;-81
2022/10/11 06:51:13;;;;;;;11.40;4.03;;;;;;;8.30;99.49;101333.75;5043817;28;20207;-81
2022/10/11 06:53:41;;;;;;;11.20;3.33;;;;;;;8.27;99.71;101344.16;5041532;28;20198;-82
2022/10/11 06:56:09;;;;;;;7.57;3.87;;;;;;;8.39;99.50;101344.22;5027278;28;20199;-79
2022/10/11 06:58:36;;;;;;;8.33;3.63;;;;;;;8.49;99.51;101350.38;5014625;28;20223;-81
2022/10/11 07:01:04;;;;;;;11.27;4.30;;;;;;;8.48;98.88;101367.72;5006887;28;20215;-80
2022/10/11 07:03:31;;;;;;;7.87;4.20;;;;;;;8.48;99.05;101372.03;5008113;28;20241;-79
2022/10/11 07:06:01;;;;;;;10.23;4.07;;;;;;;8.52;98.97;101373.78;5011169;28;20235;-81
2022/10/11 07:08:28;;;;;;;12.37;4.40;;;;;;;8.55;98.53;101385.09;5010625;28;20210;-80
2022/10/11 07:11:00;;;;;;;12.93;4.50;;;;;;;8.63;98.47;101384.25;5009344;28;20207;-83
2022/10/11 07:13:26;;;;;;;17.07;5.30;;;;;;;8.71;98.45;101398.16;5007262;28;20211;-81
2022/10/11 07:15:52;;;;;;;11.73;3.60;;;;;;;8.65;98.58;101403.34;5007903;28;20199;-82
2022/10/11 07:18:19;;;;;;;10.33;4.03;;;;;;;8.62;98.41;101400.72;5008975;28;20607;-83
2022/10/11 07:20:46;;;;;;;7.60;3.97;;;;;;;8.61;98.68;101406.81;5008563;28;20203;-81
2022/10/11 07:23:14;;;;;;;13.40;4.07;;;;;;;8.62;98.99;101395.53;5008251;28;20267;-81
2022/10/11 07:25:40;;;;;;;7.57;3.70;;;;;;;8.51;100.00;101385.94;5008914;28;20226;-81
2022/10/11 07:28:06;;;;;;;7.30;4.33;;;;;;;8.50;99.97;101376.41;5009827;28;20194;-81
2022/10/11 07:30:34;;;;;;;12.70;4.00;;;;;;;8.53;100.00;101373.78;5009023;28;20204;-81
2022/10/11 07:33:01;;;;;;;9.93;4.17;;;;;;;8.65;100.00;101369.53;5008269;28;20220;-80
2022/10/11 07:35:27;;;;;;;9.37;4.93;;;;;;;8.64;100.00;101381.66;5022787;28;20204;-82
2022/10/11 07:37:53;;;;;;;12.50;5.03;;;;;;;8.68;99.81;101386.03;5030638;28;20207;-82
2022/10/11 07:40:21;;;;;;;11.37;4.50;;;;;;;8.77;99.80;101385.19;5038593;28;20198;-82
2022/10/11 07:42:48;;;;;;;14.10;4.73;;;;;;;8.76;98.92;101401.69;5039928;28;20241;-82
2022/10/11 07:45:14;;;;;;;11.17;4.43;;;;;;;8.89;99.11;101413.00;5040037;28;20237;-83
2022/10/11 07:47:45;;;;;;;11.80;3.30;;;;;;;8.90;98.15;101428.63;5040751;28;20206;-82
2022/10/11 07:50:11;;;;;;;8.33;3.83;;;;;;;8.94;98.63;101437.31;5039424;28;20209;-83
2022/10/11 07:52:39;;;;;;;11.87;4.53;;;;;;;9.02;97.88;101442.53;5039817;28;20229;-80
2022/10/11 07:55:06;;;;;;;7.57;3.87;;;;;;;9.05;97.72;101450.38;5039121;28;20268;-81
2022/10/11 07:57:34;;;;;;;6.57;3.37;;;;;;;9.09;97.79;101462.53;5040106;28;20680;-82
2022/10/11 08:00:01;;;;;;;8.23;3.73;;;;;;;9.12;97.26;101475.59;5039703;28;20588;-82
2022/10/11 08:02:27;;;;;;;8.53;3.70;;;;;;;9.22;97.22;101479.09;5040344;28;20226;-82
2022/10/11 08:04:53;;;;;;;8.83;3.40;;;;;;;9.32;97.03;101470.44;5040510;28;20226;-83
2022/10/11 08:07:20;;;;;;;8.67;3.10;;;;;;;9.31;95.62;101510.38;5039286;28;20210;-79
2022/10/11 08:09:47;;;;;;;8.60;3.37;;;;;;;9.36;95.43;101526.03;5039221;28;20215;-82
2022/10/11 08:12:13;;;;;;;6.50;3.13;;;;;;;9.39;95.54;101519.09;5040039;28;20230;-80
2022/10/11 08:14:41;;;;;;;6.37;2.47;;;;;;;9.45;95.27;101536.47;5040298;28;20206;-82
2022/10/11 08:17:08;;;;;;;6.47;3.23;;;;;;;9.52;95.50;101540.88;5039443;28;20673;-80
2022/10/11 08:19:34;;;;;;;11.57;3.37;;;;;;;9.52;95.23;101540.88;5039928;28;20715;-81
2022/10/11 08:22:00;;;;;;;9.47;3.30;;;;;;;9.60;96.29;101525.25;5037695;28;20228;-84
2022/10/11 08:24:27;;;;;;;14.70;3.70;;;;;;;9.58;95.62;101524.38;5039228;28;20206;-81
2022/10/11 08:26:54;;;;;;;8.77;3.10;;;;;;;9.58;95.65;101540.00;5038973;28;20759;-83
2022/10/11 08:29:21;;;;;;;8.17;3.57;;;;;;;9.64;95.60;101535.69;5039575;28;20206;-79
2022/10/11 08:31:48;;;;;;;10.30;3.03;;;;;;;9.65;95.41;101534.81;5039188;28;20237;-80
2022/10/11 08:34:15;;;;;;;8.87;3.33;;;;;;;9.77;95.31;101535.69;5038976;28;20218;-81
2022/10/11 08:36:42;;;;;;;8.70;3.23;;;;;;;9.82;95.37;101532.22;5036811;28;20208;-81
2022/10/11 08:39:08;;;;;;;8.20;2.83;;;;;;;9.80;94.90;101546.16;5039180;28;20207;-80
2022/10/11 08:41:40;;;;;;;3.97;3.00;;;;;;;9.79;94.08;101571.38;5038697;28;20235;-81
2022/10/11 08:44:20;;;;;;;7.70;3.00;;;;;;;9.92;94.60;101573.09;5040161;28;20365;-82
2022/10/11 08:46:53;;;;;;;7.30;2.97;;;;;;;10.02;94.03;101581.81;5038925;28;20238;-81
2022/10/11 08:49:24;;;;;;;7.80;2.90;;;;;;;10.08;93.95;101586.19;5039548;28;20586;-80
2022/10/11 08:51:58;;;;;;;7.37;3.20;;;;;;;10.09;93.44;101599.25;5038457;28;20234;-82
2022/10/11 08:54:34;;;;;;;7.23;3.47;;;;;;;10.11;92.72;101618.38;5041684;28;20237;-81
2022/10/11 08:57:03;;;;;;;9.90;2.70;;;;;;;10.20;92.43;101620.13;5042038;28;20206;-81
2022/10/11 08:59:36;;;;;;;8.43;3.30;;;;;;;10.17;92.34;101634.88;5041383;28;20217;-80
2022/10/11 09:02:16;;;;;;;8.63;3.33;;;;;;;10.22;92.07;101643.59;5042170;28;20230;-80
2022/10/11 09:04:42;;;;;;;10.80;3.00;;;;;;;10.24;92.07;101647.94;5042223;28;20206;-79
2022/10/11 09:07:22;;;;;;;9.10;2.80;;;;;;;10.28;92.23;101634.03;5041634;28;20265;-81
2022/10/11 09:10:03;;;;;;;7.77;3.10;;;;;;;10.34;91.50;101656.72;5041235;28;20206;-81
2022/10/11 09:12:40;;;;;;;5.90;3.30;;;;;;;10.43;91.54;101654.13;5041455;28;20232;-82
2022/10/11 09:15:17;;;;;;;10.80;3.57;;;;;;;10.48;92.00;101648.91;5041777;28;20211;-81
2022/10/11 09:17:56;;;;;;;7.60;3.60;;;;;;;10.49;91.94;101651.50;5043123;28;20206;-81
2022/10/11 09:20:44;;;;;;;6.37;2.93;;;;;;;10.44;92.10;101650.63;5043780;28;20214;-80
2022/10/11 09:23:23;;;;;;;8.03;3.40;;;;;;;10.53;91.85;101647.16;5043727;28;20231;-80
2022/10/11 09:25:55;;;;;;;10.47;3.47;;;;;;;10.62;92.11;101641.94;5042080;28;20230;-81
2022/10/11 09:28:28;;;;;;;4.93;2.77;;;;;;;10.63;91.36;101655.88;5042378;28;20211;-81
2022/10/11 09:30:56;;;;;;;5.70;3.20;;;;;;;10.72;92.08;101650.63;5041679;28;20234;-81
2022/10/11 09:33:33;;;;;;;8.33;3.60;;;;;;;10.77;91.59;101638.47;5041167;28;20227;-80
2022/10/11 09:35:59;;;;;;;10.17;4.43;;;;;;;10.81;91.56;101653.25;5040840;28;20210;-81
2022/10/11 09:38:40;;;;;;;6.47;3.50;;;;;;;10.91;91.02;101661.97;5041351;28;20211;-81
2022/10/11 09:41:14;;;;;;;9.87;3.00;;;;;;;10.98;90.46;101678.50;5040997;28;20210;-82
2022/10/11 09:43:44;;;;;;;7.70;4.03;;;;;;;10.96;88.67;101711.59;5040781;28;20211;-81
2022/10/11 09:46:23;;;;;;;8.00;4.37;;;;;;;11.06;88.14;101729.00;5040896;28;20225;-80
2022/10/11 09:48:53;;;;;;;10.27;3.80;;;;;;;11.12;86.07;101781.28;5041027;28;20217;-80
2022/10/11 09:51:22;;;;;;;8.63;3.90;;;;;;;11.21;86.47;101801.31;5039249;28;20262;-79
2022/10/11 09:53:51;;;;;;;7.70;3.93;;;;;;;11.24;86.36;101811.78;5039345;28;20207;-79
2022/10/11 09:56:17;;;;;;;9.17;4.27;;;;;;;11.32;86.20;101823.13;5039188;28;20213;-79
2022/10/11 09:58:44;;;;;;;6.07;3.20;;;;;;;11.40;86.29;101802.22;5039777;28;20221;-81
2022/10/11 10:01:16;;;;;;;11.80;3.20;;;;;;;11.43;85.14;101831.81;5038626;28;20203;-81
2022/10/11 10:03:44;;;;;;;9.77;2.73;;;;;;;11.50;85.41;101835.31;5038041;28;20203;-80
2022/10/11 10:06:16;;;;;;;8.30;4.00;;;;;;;11.56;86.23;101829.22;5038351;28;20233;-80
2022/10/11 10:08:45;;;;;;;6.80;3.57;;;;;;;11.54;82.26;101886.75;5039424;28;20580;-80
2022/10/11 10:11:12;;;;;;;7.37;2.77;;;;;;;11.64;81.79;101932.09;5037702;28;20217;-79
2022/10/11 10:13:48;;;;;;;7.53;3.20;;;;;;;11.73;80.72;101958.22;5040013;28;20685;-81
2022/10/11 10:16:24;;;;;;;8.93;4.13;;;;;;;11.79;80.78;101988.75;5041412;28;20627;-80
2022/10/11 10:18:54;;;;;;;11.80;4.40;;;;;;;11.85;80.21;101994.00;5038968;28;20224;-81
2022/10/11 10:21:28;;;;;;;7.10;3.53;;;;;;;11.83;78.71;102038.50;5038905;28;20200;-80
2022/10/11 10:23:56;;;;;;;9.80;3.17;;;;;;;11.87;79.01;102036.72;5037876;28;20224;-82
2022/10/11 10:26:25;;;;;;;6.97;2.70;;;;;;;11.90;78.36;102052.47;5038213;28;20227;-80
2022/10/11 10:28:58;;;;;;;10.50;3.37;;;;;;;11.94;78.45;102067.31;5038145;28;20209;-80
2022/10/11 10:31:35;;;;;;;9.70;2.43;;;;;;;12.07;78.52;102049.88;5037597;28;20213;-83
2022/10/11 10:34:04;;;;;;;4.90;1.43;;;;;;;12.10;76.48;102081.28;5038390;28;20215;-82
2022/10/11 10:36:38;;;;;;;5.87;1.70;;;;;;;12.13;77.27;102102.25;5041201;28;20199;-81
2022/10/11 10:39:11;;;;;;;5.03;1.93;;;;;;;12.10;73.98;102154.59;5039444;28;20208;-82
2022/10/11 10:41:38;;;;;;;5.80;1.50;;;;;;;12.23;75.10;102161.59;5038598;28;20224;-83
2022/10/11 10:44:05;;;;;;;10.37;2.07;;;;;;;12.39;75.84;102148.50;5039115;28;20208;-82
2022/10/11 10:46:50;;;;;;;6.63;1.60;;;;;;;12.32;74.98;102139.78;5038887;28;20234;-82
2022/10/11 10:49:24;;;;;;;10.77;2.17;;;;;;;12.43;76.09;102142.44;5039817;28;20269;-81
2022/10/11 10:52:17;;;;;;;10.00;2.90;;;;;;;12.54;75.38;102113.63;5039240;28;20725;-80
2022/10/11 10:54:51;;;;;;;8.77;2.40;;;;;;;12.50;74.54;102155.50;5040744;28;20216;-80
2022/10/11 10:57:23;;;;;;;5.63;1.30;;;;;;;12.60;71.91;102208.78;5039085;28;20209;-82
2022/10/11 11:00:03;;;;;;;3.20;1.80;;;;;;;12.65;70.45;102267.31;5038533;28;20209;-80
2022/10/11 11:02:35;;;;;;;3.90;1.23;;;;;;;12.50;70.26;102315.28;5038405;28;20235;-81
2022/10/11 11:05:17;;;;;;;4.07;1.47;;;;;;;12.60;69.63;102329.28;5040511;28;20203;-81
2022/10/11 11:07:49;;;;;;;9.10;2.03;;;;;;;12.77;70.22;102321.50;5041163;28;20232;-81
2022/10/11 11:10:20;;;;;;;5.00;1.27;;;;;;;12.85;68.46;102319.75;5040437;28;20208;-82
2022/10/11 11:12:52;;;;;;;6.53;1.43;;;;;;;12.89;67.53;102349.47;5038401;28;20239;-82
2022/10/11 11:15:24;;;;;;;5.67;1.60;;;;;;;13.00;67.42;102373.09;5038412;28;20591;-81
2022/10/11 11:18:04;;;;;;;8.00;1.70;;;;;;;13.13;67.61;102374.88;5038899;28;20311;-81
2022/10/11 11:20:55;;;;;;;5.27;1.60;;;;;;;13.09;65.36;102397.56;5037579;28;20197;-81
2022/10/11 11:23:34;;;;;;;4.93;1.67;;;;;;;13.05;66.14;102415.94;5033132;28;20220;-81
2022/10/11 11:26:08;;;;;;;4.20;1.20;;;;;;;13.21;66.90;102412.47;5034011;28;20223;-79
2022/10/11 11:28:48;;;;;;;2.50;0.93;;;;;;;13.09;64.45;102438.66;5038125;28;20584;-81
2022/10/11 11:31:29;;;;;;;5.77;1.37;;;;;;;13.15;64.78;102443.03;5037958;28;20205;-81
2022/10/11 11:34:04;;;;;;;3.40;0.90;;;;;;;13.28;64.39;102437.84;5037685;28;20239;-81
2022/10/11 11:36:37;;;;;;;7.43;1.70;;;;;;;13.36;63.40;102466.75;5038345;28;20204;-79
2022/10/11 11:39:12;;;;;;;5.70;1.30;;;;;;;13.23;62.98;102492.00;5036988;28;20215;-80
2022/10/11 11:41:42;;;;;;;5.50;1.20;;;;;;;13.44;63.64;102475.50;5036312;28;20263;-80